sensor_id;sensor_type;location;lat;lon;timestamp;temperature;humidity
20658;DHT22;10488;50.846;4.078;2022-09-16T00:01:24;14.30;99.90
20658;DHT22;10488;50.846;4.078;2022-09-16T00:03:53;14.30;99.90
20658;DHT22;10488;50.846;4.078;2022-09-16T00:06:22;14.20;99.90
20658;DHT22;10488;50.846;4.078;2022-09-16T00:08:48;14.20;99.90
20658;DHT22;10488;50.846;4.078;2022-09-16T00:11:16;14.20;99.90
20658;DHT22;10488;50.846;4.078;2022-09-16T00:13:41;14.20;99.90
20658;DHT22;10488;50.846;4.078;2022-09-16T00:16:27;14.30;99.90
20658;DHT22;10488;50.846;4.078;2022-09-16T00:18:57;14.40;99.90
20658;DHT22;10488;50.846;4.078;2022-09-16T00:21:25;14.40;99.90
20658;DHT22;10488;50.846;4.078;2022-09-16T00:23:51;14.40;99.90
20658;DHT22;10488;50.846;4.078;2022-09-16T00:26:16;14.40;99.90
20658;DHT22;10488;50.846;4.078;2022-09-16T00:28:43;14.30;99.90
20658;DHT22;10488;50.846;4.078;2022-09-16T00:31:08;14.40;99.90
20658;DHT22;10488;50.846;4.078;2022-09-16T00:33:34;14.40;99.90
20658;DHT22;10488;50.846;4.078;2022-09-16T00:36:05;14.40;99.90
20658;DHT22;10488;50.846;4.078;2022-09-16T00:38:30;14.40;99.90
20658;DHT22;10488;50.846;4.078;2022-09-16T00:40:56;14.40;99.90
20658;DHT22;10488;50.846;4.078;2022-09-16T00:43:22;14.30;99.90
20658;DHT22;10488;50.846;4.078;2022-09-16T00:45:54;14.30;99.90
20658;DHT22;10488;50.846;4.078;2022-09-16T00:48:23;14.30;99.90
20658;DHT22;10488;50.846;4.078;2022-09-16T00:50:53;14.40;99.90
20658;DHT22;10488;50.846;4.078;2022-09-16T00:53:24;14.40;99.90
20658;DHT22;10488;50.846;4.078;2022-09-16T00:55:53;14.40;99.90
20658;DHT22;10488;50.846;4.078;2022-09-16T00:58:42;14.50;99.90
20658;DHT22;10488;50.846;4.078;2022-09-16T01:01:08;14.30;99.90
20658;DHT22;10488;50.846;4.078;2022-09-16T01:03:39;14.20;99.90
20658;DHT22;10488;50.846;4.078;2022-09-16T01:06:08;14.10;99.90
20658;DHT22;10488;50.846;4.078;2022-09-16T01:08:34;14.10;99.90
20658;DHT22;10488;50.846;4.078;2022-09-16T01:11:00;14.00;99.90
20658;DHT22;10488;50.846;4.078;2022-09-16T01:13:25;14.00;99.90
20658;DHT22;10488;50.846;4.078;2022-09-16T01:26:20;13.70;99.90
20658;DHT22;10488;50.846;4.078;2022-09-16T01:31:47;13.80;99.90
20658;DHT22;10488;50.846;4.078;2022-09-16T01:35:19;13.80;99.90
20658;DHT22;10488;50.846;4.078;2022-09-16T01:40:33;13.70;99.90
20658;DHT22;10488;50.846;4.078;2022-09-16T01:43:17;13.70;99.90
20658;DHT22;10488;50.846;4.078;2022-09-16T01:46:54;13.60;99.90
20658;DHT22;10488;50.846;4.078;2022-09-16T01:54:48;13.60;99.90
20658;DHT22;10488;50.846;4.078;2022-09-16T01:57:20;13.60;99.90
20658;DHT22;10488;50.846;4.078;2022-09-16T02:00:05;13.60;99.90
20658;DHT22;10488;50.846;4.078;2022-09-16T02:05:21;13.70;99.90
20658;DHT22;10488;50.846;4.078;2022-09-16T02:07:53;13.60;99.90
20658;DHT22;10488;50.846;4.078;2022-09-16T02:10:26;13.60;99.90
20658;DHT22;10488;50.846;4.078;2022-09-16T02:12:56;13.40;99.90
20658;DHT22;10488;50.846;4.078;2022-09-16T02:15:24;13.50;99.90
20658;DHT22;10488;50.846;4.078;2022-09-16T02:17:56;13.50;99.90
20658;DHT22;10488;50.846;4.078;2022-09-16T02:20:26;13.40;99.90
20658;DHT22;10488;50.846;4.078;2022-09-16T02:23:13;13.50;99.90
20658;DHT22;10488;50.846;4.078;2022-09-16T02:25:41;13.50;99.90
20658;DHT22;10488;50.846;4.078;2022-09-16T02:28:13;13.50;99.90
20658;DHT22;10488;50.846;4.078;2022-09-16T02:30:48;13.50;99.90
20658;DHT22;10488;50.846;4.078;2022-09-16T02:33:15;13.30;99.90
20658;DHT22;10488;50.846;4.078;2022-09-16T02:35:44;13.30;99.90
20658;DHT22;10488;50.846;4.078;2022-09-16T02:38:25;13.40;99.90
20658;DHT22;10488;50.846;4.078;2022-09-16T02:40:59;13.40;99.90
20658;DHT22;10488;50.846;4.078;2022-09-16T02:43:27;13.40;99.90
20658;DHT22;10488;50.846;4.078;2022-09-16T02:46:03;13.30;99.90
20658;DHT22;10488;50.846;4.078;2022-09-16T02:49:23;13.10;99.90
20658;DHT22;10488;50.846;4.078;2022-09-16T02:55:01;13.00;99.90
20658;DHT22;10488;50.846;4.078;2022-09-16T02:57:29;12.70;99.90
20658;DHT22;10488;50.846;4.078;2022-09-16T02:59:55;12.80;99.90
20658;DHT22;10488;50.846;4.078;2022-09-16T03:02:21;13.00;99.90
20658;DHT22;10488;50.846;4.078;2022-09-16T03:04:48;12.90;99.90
20658;DHT22;10488;50.846;4.078;2022-09-16T03:07:14;12.90;99.90
20658;DHT22;10488;50.846;4.078;2022-09-16T03:09:43;12.90;99.90
20658;DHT22;10488;50.846;4.078;2022-09-16T03:21:11;12.90;99.90
20658;DHT22;10488;50.846;4.078;2022-09-16T03:29:30;12.90;99.90
20658;DHT22;10488;50.846;4.078;2022-09-16T03:32:22;12.60;99.90
20658;DHT22;10488;50.846;4.078;2022-09-16T03:35:33;12.70;99.90
20658;DHT22;10488;50.846;4.078;2022-09-16T03:37:41;12.70;99.90
20658;DHT22;10488;50.846;4.078;2022-09-16T03:40:10;12.50;99.90
20658;DHT22;10488;50.846;4.078;2022-09-16T03:42:41;12.50;99.90
20658;DHT22;10488;50.846;4.078;2022-09-16T03:45:14;12.70;99.90
20658;DHT22;10488;50.846;4.078;2022-09-16T03:47:41;12.80;99.90
20658;DHT22;10488;50.846;4.078;2022-09-16T03:50:07;12.90;99.90
20658;DHT22;10488;50.846;4.078;2022-09-16T03:52:32;12.90;99.90
20658;DHT22;10488;50.846;4.078;2022-09-16T03:54:58;12.90;99.90
20658;DHT22;10488;50.846;4.078;2022-09-16T03:57:24;12.90;99.90
20658;DHT22;10488;50.846;4.078;2022-09-16T03:59:50;12.80;99.90
20658;DHT22;10488;50.846;4.078;2022-09-16T04:02:15;12.80;99.90
20658;DHT22;10488;50.846;4.078;2022-09-16T04:04:41;12.80;99.90
20658;DHT22;10488;50.846;4.078;2022-09-16T04:07:07;12.80;99.90
20658;DHT22;10488;50.846;4.078;2022-09-16T04:09:33;12.90;99.90
20658;DHT22;10488;50.846;4.078;2022-09-16T04:11:59;13.00;99.90
20658;DHT22;10488;50.846;4.078;2022-09-16T04:14:25;13.10;99.90
20658;DHT22;10488;50.846;4.078;2022-09-16T04:16:51;13.00;99.90
20658;DHT22;10488;50.846;4.078;2022-09-16T04:19:16;13.10;99.90
20658;DHT22;10488;50.846;4.078;2022-09-16T04:21:42;12.90;99.90
20658;DHT22;10488;50.846;4.078;2022-09-16T04:24:07;13.10;99.90
20658;DHT22;10488;50.846;4.078;2022-09-16T04:26:33;13.20;99.90
20658;DHT22;10488;50.846;4.078;2022-09-16T04:28:59;13.10;99.90
20658;DHT22;10488;50.846;4.078;2022-09-16T04:31:24;13.30;99.90
20658;DHT22;10488;50.846;4.078;2022-09-16T04:33:50;13.20;99.90
20658;DHT22;10488;50.846;4.078;2022-09-16T04:36:18;13.20;99.90
20658;DHT22;10488;50.846;4.078;2022-09-16T04:38:45;13.20;99.90
20658;DHT22;10488;50.846;4.078;2022-09-16T04:41:21;13.50;99.90
20658;DHT22;10488;50.846;4.078;2022-09-16T04:43:52;13.50;99.90
20658;DHT22;10488;50.846;4.078;2022-09-16T04:46:18;13.40;99.90
20658;DHT22;10488;50.846;4.078;2022-09-16T04:48:48;13.30;99.90
20658;DHT22;10488;50.846;4.078;2022-09-16T04:51:14;13.10;99.90
20658;DHT22;10488;50.846;4.078;2022-09-16T04:53:41;12.90;99.90
20658;DHT22;10488;50.846;4.078;2022-09-16T04:56:11;12.90;99.90
20658;DHT22;10488;50.846;4.078;2022-09-16T04:58:51;12.90;99.90
20658;DHT22;10488;50.846;4.078;2022-09-16T05:01:20;12.90;99.90
20658;DHT22;10488;50.846;4.078;2022-09-16T05:03:49;12.80;99.90
20658;DHT22;10488;50.846;4.078;2022-09-16T05:06:23;12.80;99.90
20658;DHT22;10488;50.846;4.078;2022-09-16T05:08:50;12.80;99.90
20658;DHT22;10488;50.846;4.078;2022-09-16T05:11:24;12.90;99.90
20658;DHT22;10488;50.846;4.078;2022-09-16T05:13:50;12.70;99.90
20658;DHT22;10488;50.846;4.078;2022-09-16T05:16:18;12.70;99.90
20658;DHT22;10488;50.846;4.078;2022-09-16T05:18:46;12.80;99.90
20658;DHT22;10488;50.846;4.078;2022-09-16T05:21:14;13.00;99.90
20658;DHT22;10488;50.846;4.078;2022-09-16T05:23:41;13.00;99.90
20658;DHT22;10488;50.846;4.078;2022-09-16T05:26:09;13.10;99.90
20658;DHT22;10488;50.846;4.078;2022-09-16T05:28:35;13.20;99.90
20658;DHT22;10488;50.846;4.078;2022-09-16T05:31:11;13.30;99.90
20658;DHT22;10488;50.846;4.078;2022-09-16T05:33:43;13.30;99.90
20658;DHT22;10488;50.846;4.078;2022-09-16T05:36:12;13.10;99.90
20658;DHT22;10488;50.846;4.078;2022-09-16T05:38:38;13.10;99.90
20658;DHT22;10488;50.846;4.078;2022-09-16T05:41:05;13.30;99.90
20658;DHT22;10488;50.846;4.078;2022-09-16T05:43:32;13.60;99.90
20658;DHT22;10488;50.846;4.078;2022-09-16T05:45:58;13.60;99.90
20658;DHT22;10488;50.846;4.078;2022-09-16T05:48:24;13.60;99.90
20658;DHT22;10488;50.846;4.078;2022-09-16T05:50:54;13.60;99.90
20658;DHT22;10488;50.846;4.078;2022-09-16T05:53:22;13.10;99.90
20658;DHT22;10488;50.846;4.078;2022-09-16T05:58:28;13.20;99.90
20658;DHT22;10488;50.846;4.078;2022-09-16T06:01:15;13.40;99.90
20658;DHT22;10488;50.846;4.078;2022-09-16T06:03:43;13.50;99.90
20658;DHT22;10488;50.846;4.078;2022-09-16T06:06:17;13.60;99.90
20658;DHT22;10488;50.846;4.078;2022-09-16T06:08:45;13.60;99.90
20658;DHT22;10488;50.846;4.078;2022-09-16T06:11:11;13.40;99.90
20658;DHT22;10488;50.846;4.078;2022-09-16T06:13:37;13.10;99.90
20658;DHT22;10488;50.846;4.078;2022-09-16T06:16:04;13.20;99.90
20658;DHT22;10488;50.846;4.078;2022-09-16T06:18:31;13.20;99.90
20658;DHT22;10488;50.846;4.078;2022-09-16T06:21:01;13.20;99.90
20658;DHT22;10488;50.846;4.078;2022-09-16T06:23:27;13.50;99.90
20658;DHT22;10488;50.846;4.078;2022-09-16T06:26:05;13.80;99.90
20658;DHT22;10488;50.846;4.078;2022-09-16T06:28:31;13.90;99.90
20658;DHT22;10488;50.846;4.078;2022-09-16T06:31:12;13.50;99.90
20658;DHT22;10488;50.846;4.078;2022-09-16T06:33:39;13.80;99.90
20658;DHT22;10488;50.846;4.078;2022-09-16T06:36:10;13.90;99.90
20658;DHT22;10488;50.846;4.078;2022-09-16T06:38:37;14.00;99.90
20658;DHT22;10488;50.846;4.078;2022-09-16T06:41:05;14.40;99.90
20658;DHT22;10488;50.846;4.078;2022-09-16T06:43:32;14.60;99.90
20658;DHT22;10488;50.846;4.078;2022-09-16T06:46:03;14.60;99.90
20658;DHT22;10488;50.846;4.078;2022-09-16T06:48:31;14.60;99.90
20658;DHT22;10488;50.846;4.078;2022-09-16T06:51:03;14.70;99.90
20658;DHT22;10488;50.846;4.078;2022-09-16T06:53:29;14.60;99.90
20658;DHT22;10488;50.846;4.078;2022-09-16T06:55:59;14.50;99.90
20658;DHT22;10488;50.846;4.078;2022-09-16T06:58:26;14.30;99.90
20658;DHT22;10488;50.846;4.078;2022-09-16T07:00:54;14.60;99.90
20658;DHT22;10488;50.846;4.078;2022-09-16T07:03:20;15.00;99.90
20658;DHT22;10488;50.846;4.078;2022-09-16T07:05:59;15.20;99.90
20658;DHT22;10488;50.846;4.078;2022-09-16T07:08:29;15.00;99.90
20658;DHT22;10488;50.846;4.078;2022-09-16T07:11:06;14.60;99.90
20658;DHT22;10488;50.846;4.078;2022-09-16T07:13:32;14.80;99.90
20658;DHT22;10488;50.846;4.078;2022-09-16T07:16:00;14.70;99.90
20658;DHT22;10488;50.846;4.078;2022-09-16T07:18:27;14.40;99.90
20658;DHT22;10488;50.846;4.078;2022-09-16T07:20:58;14.30;99.90
20658;DHT22;10488;50.846;4.078;2022-09-16T07:23:24;14.20;99.90
20658;DHT22;10488;50.846;4.078;2022-09-16T07:26:03;14.00;99.90
20658;DHT22;10488;50.846;4.078;2022-09-16T07:28:29;14.20;99.90
20658;DHT22;10488;50.846;4.078;2022-09-16T07:30:55;14.10;99.90
20658;DHT22;10488;50.846;4.078;2022-09-16T07:33:21;14.10;99.90
20658;DHT22;10488;50.846;4.078;2022-09-16T07:35:47;14.10;99.90
20658;DHT22;10488;50.846;4.078;2022-09-16T07:38:12;13.80;99.90
20658;DHT22;10488;50.846;4.078;2022-09-16T07:40:38;14.20;99.90
20658;DHT22;10488;50.846;4.078;2022-09-16T07:43:06;14.30;99.90
20658;DHT22;10488;50.846;4.078;2022-09-16T07:45:32;15.00;99.90
20658;DHT22;10488;50.846;4.078;2022-09-16T07:47:58;15.20;99.90
20658;DHT22;10488;50.846;4.078;2022-09-16T07:50:23;16.10;99.90
20658;DHT22;10488;50.846;4.078;2022-09-16T07:52:54;16.60;99.90
20658;DHT22;10488;50.846;4.078;2022-09-16T07:55:19;17.30;99.90
20658;DHT22;10488;50.846;4.078;2022-09-16T07:57:45;17.80;99.90
20658;DHT22;10488;50.846;4.078;2022-09-16T08:00:11;17.20;99.90
20658;DHT22;10488;50.846;4.078;2022-09-16T08:02:37;16.60;99.90
20658;DHT22;10488;50.846;4.078;2022-09-16T08:05:03;16.00;99.90
20658;DHT22;10488;50.846;4.078;2022-09-16T08:07:29;16.30;99.90
20658;DHT22;10488;50.846;4.078;2022-09-16T08:09:54;16.90;99.90
20658;DHT22;10488;50.846;4.078;2022-09-16T08:12:20;16.60;99.90
20658;DHT22;10488;50.846;4.078;2022-09-16T08:14:46;16.30;99.90
20658;DHT22;10488;50.846;4.078;2022-09-16T08:17:11;16.00;99.90
20658;DHT22;10488;50.846;4.078;2022-09-16T08:19:37;15.60;99.90
20658;DHT22;10488;50.846;4.078;2022-09-16T08:22:03;15.60;99.90
20658;DHT22;10488;50.846;4.078;2022-09-16T08:24:29;15.30;99.90
20658;DHT22;10488;50.846;4.078;2022-09-16T08:26:55;15.50;99.90
20658;DHT22;10488;50.846;4.078;2022-09-16T08:29:21;15.60;99.90
20658;DHT22;10488;50.846;4.078;2022-09-16T08:31:49;15.60;99.90
20658;DHT22;10488;50.846;4.078;2022-09-16T08:34:16;15.80;99.90
20658;DHT22;10488;50.846;4.078;2022-09-16T08:36:42;16.00;99.90
20658;DHT22;10488;50.846;4.078;2022-09-16T08:39:09;16.00;99.90
20658;DHT22;10488;50.846;4.078;2022-09-16T08:50:05;14.70;99.90
20658;DHT22;10488;50.846;4.078;2022-09-16T08:52:36;14.90;99.90
20658;DHT22;10488;50.846;4.078;2022-09-16T08:55:14;14.80;99.90
20658;DHT22;10488;50.846;4.078;2022-09-16T08:57:49;15.40;99.90
20658;DHT22;10488;50.846;4.078;2022-09-16T09:00:18;15.10;99.90
20658;DHT22;10488;50.846;4.078;2022-09-16T09:02:54;14.70;99.90
20658;DHT22;10488;50.846;4.078;2022-09-16T09:05:49;14.60;99.90
20658;DHT22;10488;50.846;4.078;2022-09-16T09:08:23;14.30;99.90
20658;DHT22;10488;50.846;4.078;2022-09-16T09:10:55;15.10;99.90
20658;DHT22;10488;50.846;4.078;2022-09-16T09:15:59;15.50;99.90
20658;DHT22;10488;50.846;4.078;2022-09-16T09:23:57;15.90;99.90
20658;DHT22;10488;50.846;4.078;2022-09-16T09:26:51;15.90;99.90
20658;DHT22;10488;50.846;4.078;2022-09-16T09:32:20;16.00;99.90
20658;DHT22;10488;50.846;4.078;2022-09-16T09:37:47;16.20;99.90
20658;DHT22;10488;50.846;4.078;2022-09-16T09:43:15;16.30;99.90
20658;DHT22;10488;50.846;4.078;2022-09-16T09:48:37;16.30;99.90
20658;DHT22;10488;50.846;4.078;2022-09-16T09:51:26;16.40;99.90
20658;DHT22;10488;50.846;4.078;2022-09-16T09:53:58;16.30;99.90
20658;DHT22;10488;50.846;4.078;2022-09-16T09:56:40;16.60;99.90
20658;DHT22;10488;50.846;4.078;2022-09-16T10:01:37;16.60;99.90
20658;DHT22;10488;50.846;4.078;2022-09-16T10:04:12;16.50;99.90
20658;DHT22;10488;50.846;4.078;2022-09-16T10:06:39;16.60;99.90
20658;DHT22;10488;50.846;4.078;2022-09-16T10:09:10;16.40;99.90
20658;DHT22;10488;50.846;4.078;2022-09-16T10:11:47;16.80;99.90
20658;DHT22;10488;50.846;4.078;2022-09-16T10:14:31;16.60;99.90
20658;DHT22;10488;50.846;4.078;2022-09-16T10:17:01;16.70;99.90
20658;DHT22;10488;50.846;4.078;2022-09-16T10:20:20;16.40;99.90
20658;DHT22;10488;50.846;4.078;2022-09-16T10:22:26;16.00;99.90
20658;DHT22;10488;50.846;4.078;2022-09-16T10:24:54;15.80;99.90
20658;DHT22;10488;50.846;4.078;2022-09-16T10:30:17;16.10;99.90
20658;DHT22;10488;50.846;4.078;2022-09-16T10:33:00;16.20;99.90
20658;DHT22;10488;50.846;4.078;2022-09-16T10:35:35;16.30;99.90
20658;DHT22;10488;50.846;4.078;2022-09-16T10:38:12;16.60;99.90
20658;DHT22;10488;50.846;4.078;2022-09-16T10:41:13;16.80;99.90
20658;DHT22;10488;50.846;4.078;2022-09-16T10:43:46;17.20;99.90
20658;DHT22;10488;50.846;4.078;2022-09-16T10:46:17;17.40;99.90
20658;DHT22;10488;50.846;4.078;2022-09-16T10:48:43;17.70;99.90
20658;DHT22;10488;50.846;4.078;2022-09-16T10:51:25;17.70;99.90
20658;DHT22;10488;50.846;4.078;2022-09-16T10:53:55;17.50;99.90
20658;DHT22;10488;50.846;4.078;2022-09-16T10:56:32;17.00;99.90
20658;DHT22;10488;50.846;4.078;2022-09-16T10:59:09;17.10;99.90
20658;DHT22;10488;50.846;4.078;2022-09-16T11:01:47;17.00;99.90
20658;DHT22;10488;50.846;4.078;2022-09-16T11:04:50;17.50;99.90
20658;DHT22;10488;50.846;4.078;2022-09-16T11:21:37;17.80;99.90
20658;DHT22;10488;50.846;4.078;2022-09-16T11:24:28;17.20;99.90
20658;DHT22;10488;50.846;4.078;2022-09-16T11:38:56;13.70;99.90
20658;DHT22;10488;50.846;4.078;2022-09-16T11:41:52;13.50;99.90
20658;DHT22;10488;50.846;4.078;2022-09-16T11:50:05;14.10;99.90
20658;DHT22;10488;50.846;4.078;2022-09-16T11:57:58;14.20;99.90
20658;DHT22;10488;50.846;4.078;2022-09-16T12:00:28;14.20;99.90
20658;DHT22;10488;50.846;4.078;2022-09-16T12:13:26;15.10;99.90
20658;DHT22;10488;50.846;4.078;2022-09-16T12:15:58;15.40;99.90
20658;DHT22;10488;50.846;4.078;2022-09-16T12:18:37;15.50;99.90
20658;DHT22;10488;50.846;4.078;2022-09-16T12:21:10;15.50;99.90
20658;DHT22;10488;50.846;4.078;2022-09-16T12:23:59;15.40;99.90
20658;DHT22;10488;50.846;4.078;2022-09-16T12:26:31;15.30;99.90
20658;DHT22;10488;50.846;4.078;2022-09-16T12:29:35;15.40;99.90
20658;DHT22;10488;50.846;4.078;2022-09-16T12:32:06;15.60;99.90
20658;DHT22;10488;50.846;4.078;2022-09-16T12:34:40;16.00;99.90
20658;DHT22;10488;50.846;4.078;2022-09-16T12:39:39;15.90;99.90
20658;DHT22;10488;50.846;4.078;2022-09-16T12:42:41;16.10;99.90
20658;DHT22;10488;50.846;4.078;2022-09-16T12:51:07;16.50;99.90
20658;DHT22;10488;50.846;4.078;2022-09-16T13:01:51;18.00;99.90
20658;DHT22;10488;50.846;4.078;2022-09-16T13:04:21;17.80;99.90
20658;DHT22;10488;50.846;4.078;2022-09-16T13:06:51;17.60;99.90
20658;DHT22;10488;50.846;4.078;2022-09-16T13:09:25;17.00;99.90
20658;DHT22;10488;50.846;4.078;2022-09-16T13:12:18;16.50;99.90
20658;DHT22;10488;50.846;4.078;2022-09-16T13:15:04;16.50;99.90
20658;DHT22;10488;50.846;4.078;2022-09-16T13:17:36;16.40;99.90
20658;DHT22;10488;50.846;4.078;2022-09-16T13:20:16;15.40;99.90
20658;DHT22;10488;50.846;4.078;2022-09-16T13:22:46;15.40;99.90
20658;DHT22;10488;50.846;4.078;2022-09-16T13:25:24;15.20;99.90
20658;DHT22;10488;50.846;4.078;2022-09-16T13:30:38;14.40;99.90
20658;DHT22;10488;50.846;4.078;2022-09-16T13:33:24;13.90;99.90
20658;DHT22;10488;50.846;4.078;2022-09-16T13:36:11;14.00;99.90
20658;DHT22;10488;50.846;4.078;2022-09-16T13:38:49;14.20;99.90
20658;DHT22;10488;50.846;4.078;2022-09-16T13:41:43;14.40;99.90
20658;DHT22;10488;50.846;4.078;2022-09-16T13:44:29;14.50;99.90
20658;DHT22;10488;50.846;4.078;2022-09-16T13:49:59;14.70;99.90
20658;DHT22;10488;50.846;4.078;2022-09-16T13:52:30;14.30;99.90
20658;DHT22;10488;50.846;4.078;2022-09-16T13:54:58;14.20;99.90
20658;DHT22;10488;50.846;4.078;2022-09-16T14:00:25;14.60;99.90
20658;DHT22;10488;50.846;4.078;2022-09-16T14:03:05;15.00;99.90
20658;DHT22;10488;50.846;4.078;2022-09-16T14:11:42;16.00;99.90
20658;DHT22;10488;50.846;4.078;2022-09-16T14:14:22;16.10;99.90
20658;DHT22;10488;50.846;4.078;2022-09-16T14:16:48;16.10;99.90
20658;DHT22;10488;50.846;4.078;2022-09-16T14:24:24;16.40;99.90
20658;DHT22;10488;50.846;4.078;2022-09-16T14:26:52;16.30;99.90
20658;DHT22;10488;50.846;4.078;2022-09-16T14:29:19;16.00;99.90
20658;DHT22;10488;50.846;4.078;2022-09-16T14:31:44;15.90;99.90
20658;DHT22;10488;50.846;4.078;2022-09-16T14:34:17;15.80;99.90
20658;DHT22;10488;50.846;4.078;2022-09-16T14:36:45;15.20;99.90
20658;DHT22;10488;50.846;4.078;2022-09-16T14:39:17;15.10;99.90
20658;DHT22;10488;50.846;4.078;2022-09-16T14:41:50;14.80;99.90
20658;DHT22;10488;50.846;4.078;2022-09-16T14:46:52;14.90;99.90
20658;DHT22;10488;50.846;4.078;2022-09-16T14:49:19;15.00;99.90
20658;DHT22;10488;50.846;4.078;2022-09-16T14:51:48;14.80;99.90
20658;DHT22;10488;50.846;4.078;2022-09-16T14:54:19;14.90;99.90
20658;DHT22;10488;50.846;4.078;2022-09-16T14:56:57;15.00;99.90
20658;DHT22;10488;50.846;4.078;2022-09-16T14:59:37;14.30;99.90
20658;DHT22;10488;50.846;4.078;2022-09-16T15:04:39;14.10;99.90
20658;DHT22;10488;50.846;4.078;2022-09-16T15:07:16;14.20;99.90
20658;DHT22;10488;50.846;4.078;2022-09-16T15:10:06;14.30;99.90
20658;DHT22;10488;50.846;4.078;2022-09-16T15:12:33;14.50;99.90
20658;DHT22;10488;50.846;4.078;2022-09-16T15:15:19;14.50;99.90
20658;DHT22;10488;50.846;4.078;2022-09-16T15:18:04;14.60;99.90
20658;DHT22;10488;50.846;4.078;2022-09-16T15:20:33;14.50;99.90
20658;DHT22;10488;50.846;4.078;2022-09-16T15:23:00;14.20;99.90
20658;DHT22;10488;50.846;4.078;2022-09-16T15:25:29;14.50;99.90
20658;DHT22;10488;50.846;4.078;2022-09-16T15:28:16;14.60;99.90
20658;DHT22;10488;50.846;4.078;2022-09-16T15:30:51;14.60;99.90
20658;DHT22;10488;50.846;4.078;2022-09-16T15:33:40;14.00;99.90
20658;DHT22;10488;50.846;4.078;2022-09-16T15:36:39;14.00;99.90
20658;DHT22;10488;50.846;4.078;2022-09-16T15:39:20;14.10;99.90
20658;DHT22;10488;50.846;4.078;2022-09-16T15:41:48;14.10;99.90
20658;DHT22;10488;50.846;4.078;2022-09-16T15:44:18;14.20;99.90
20658;DHT22;10488;50.846;4.078;2022-09-16T15:46:48;14.30;99.90
20658;DHT22;10488;50.846;4.078;2022-09-16T15:49:16;14.20;99.90
20658;DHT22;10488;50.846;4.078;2022-09-16T15:51:46;14.20;99.90
20658;DHT22;10488;50.846;4.078;2022-09-16T15:56:55;14.20;99.90
20658;DHT22;10488;50.846;4.078;2022-09-16T15:59:45;14.50;99.90
20658;DHT22;10488;50.846;4.078;2022-09-16T16:02:35;14.60;99.90
20658;DHT22;10488;50.846;4.078;2022-09-16T16:05:13;14.50;99.90
20658;DHT22;10488;50.846;4.078;2022-09-16T16:07:46;14.60;99.90
20658;DHT22;10488;50.846;4.078;2022-09-16T16:10:18;14.70;99.90
20658;DHT22;10488;50.846;4.078;2022-09-16T16:12:46;14.70;99.90
20658;DHT22;10488;50.846;4.078;2022-09-16T16:15:14;14.60;99.90
20658;DHT22;10488;50.846;4.078;2022-09-16T16:17:40;14.60;99.90
20658;DHT22;10488;50.846;4.078;2022-09-16T16:20:07;14.40;99.90
20658;DHT22;10488;50.846;4.078;2022-09-16T16:22:33;14.30;99.90
20658;DHT22;10488;50.846;4.078;2022-09-16T16:24:59;14.40;99.90
20658;DHT22;10488;50.846;4.078;2022-09-16T16:27:25;14.50;99.90
20658;DHT22;10488;50.846;4.078;2022-09-16T16:29:50;14.30;99.90
20658;DHT22;10488;50.846;4.078;2022-09-16T16:32:16;14.20;99.90
20658;DHT22;10488;50.846;4.078;2022-09-16T16:34:43;14.40;99.90
20658;DHT22;10488;50.846;4.078;2022-09-16T16:37:11;14.50;99.90
20658;DHT22;10488;50.846;4.078;2022-09-16T16:39:37;14.40;99.90
20658;DHT22;10488;50.846;4.078;2022-09-16T16:42:04;14.50;99.90
20658;DHT22;10488;50.846;4.078;2022-09-16T16:44:31;14.30;99.90
20658;DHT22;10488;50.846;4.078;2022-09-16T16:46:57;14.20;99.90
20658;DHT22;10488;50.846;4.078;2022-09-16T16:49:23;14.40;99.90
20658;DHT22;10488;50.846;4.078;2022-09-16T16:51:52;14.30;99.90
20658;DHT22;10488;50.846;4.078;2022-09-16T16:54:20;14.20;99.90
20658;DHT22;10488;50.846;4.078;2022-09-16T16:56:46;14.10;99.90
20658;DHT22;10488;50.846;4.078;2022-09-16T16:59:13;14.00;99.90
20658;DHT22;10488;50.846;4.078;2022-09-16T17:01:39;13.90;99.90
20658;DHT22;10488;50.846;4.078;2022-09-16T17:04:05;13.50;99.90
20658;DHT22;10488;50.846;4.078;2022-09-16T17:06:31;13.20;99.90
20658;DHT22;10488;50.846;4.078;2022-09-16T17:08:59;13.00;99.90
20658;DHT22;10488;50.846;4.078;2022-09-16T17:11:25;12.80;99.90
20658;DHT22;10488;50.846;4.078;2022-09-16T17:13:52;12.80;99.90
20658;DHT22;10488;50.846;4.078;2022-09-16T17:16:22;12.80;99.90
20658;DHT22;10488;50.846;4.078;2022-09-16T17:18:49;12.90;99.90
20658;DHT22;10488;50.846;4.078;2022-09-16T17:21:35;12.90;99.90
20658;DHT22;10488;50.846;4.078;2022-09-16T17:24:01;12.90;99.90
20658;DHT22;10488;50.846;4.078;2022-09-16T17:26:27;12.60;99.90
20658;DHT22;10488;50.846;4.078;2022-09-16T17:28:54;12.60;99.90
20658;DHT22;10488;50.846;4.078;2022-09-16T17:31:26;12.30;99.90
20658;DHT22;10488;50.846;4.078;2022-09-16T17:33:58;12.20;99.90
20658;DHT22;10488;50.846;4.078;2022-09-16T17:36:27;12.10;99.90
20658;DHT22;10488;50.846;4.078;2022-09-16T17:38:57;11.90;99.90
20658;DHT22;10488;50.846;4.078;2022-09-16T17:41:24;12.00;99.90
20658;DHT22;10488;50.846;4.078;2022-09-16T17:43:56;12.30;99.90
20658;DHT22;10488;50.846;4.078;2022-09-16T17:46:24;12.20;99.90
20658;DHT22;10488;50.846;4.078;2022-09-16T17:48:52;11.90;99.90
20658;DHT22;10488;50.846;4.078;2022-09-16T17:51:19;11.80;99.90
20658;DHT22;10488;50.846;4.078;2022-09-16T17:53:45;11.50;99.90
20658;DHT22;10488;50.846;4.078;2022-09-16T17:56:14;11.50;99.90
20658;DHT22;10488;50.846;4.078;2022-09-16T17:58:42;11.60;99.90
20658;DHT22;10488;50.846;4.078;2022-09-16T18:01:11;11.80;99.90
20658;DHT22;10488;50.846;4.078;2022-09-16T18:03:38;11.70;99.90
20658;DHT22;10488;50.846;4.078;2022-09-16T18:06:05;11.50;99.90
20658;DHT22;10488;50.846;4.078;2022-09-16T18:08:31;11.40;99.90
20658;DHT22;10488;50.846;4.078;2022-09-16T18:10:58;11.30;99.90
20658;DHT22;10488;50.846;4.078;2022-09-16T18:13:23;11.60;99.90
20658;DHT22;10488;50.846;4.078;2022-09-16T18:15:49;11.80;99.90
20658;DHT22;10488;50.846;4.078;2022-09-16T18:18:15;11.80;99.90
20658;DHT22;10488;50.846;4.078;2022-09-16T18:20:43;11.50;99.90
20658;DHT22;10488;50.846;4.078;2022-09-16T18:23:08;11.40;99.90
20658;DHT22;10488;50.846;4.078;2022-09-16T18:25:38;11.40;99.90
20658;DHT22;10488;50.846;4.078;2022-09-16T18:28:03;11.50;99.90
20658;DHT22;10488;50.846;4.078;2022-09-16T18:30:29;11.60;99.90
20658;DHT22;10488;50.846;4.078;2022-09-16T18:32:55;11.70;99.90
20658;DHT22;10488;50.846;4.078;2022-09-16T18:35:21;11.70;99.90
20658;DHT22;10488;50.846;4.078;2022-09-16T18:37:46;11.80;99.90
20658;DHT22;10488;50.846;4.078;2022-09-16T18:40:12;11.90;99.90
20658;DHT22;10488;50.846;4.078;2022-09-16T18:42:38;11.60;99.90
20658;DHT22;10488;50.846;4.078;2022-09-16T18:45:04;11.70;99.90
20658;DHT22;10488;50.846;4.078;2022-09-16T18:47:30;12.00;99.90